Gipsy 3 — FI3409 — position and weather

sailwx.info

Track history (hours):
 
Tides and Currents Weather Stations Pressure Air Temp Water Temp Dewpoint Dewpoint Depression Visibility Wind Speed Wind Dir Waves Ship Positions

Gipsy 3

Last reported at 2018-Apr-23 13:25 UTC. Time now 2018-Apr-23 13:51 UTC.
Position N 36°57' W 025°09'.

Length 9 m.

Type: Sailing vessel. MMSI: 227170890.

Date/timePositionNaut miles runAvg speedWind from/ knotsBaromVisibWave heightAir tempDewpointWater temp
2018-Apr-23 13:25N 36°57' W 025°09'0 0.0
2018-Apr-23 12:58N 36°57' W 025°09'0 0.0
2018-Apr-23 12:28N 36°57' W 025°09'0 0.0
2018-Apr-23 11:58N 36°57' W 025°09'0 0.0
2018-Apr-23 11:28N 36°57' W 025°09'0 0.0
2018-Apr-23 10:58N 36°57' W 025°09'0 0.0
2018-Apr-23 10:28N 36°57' W 025°09'0 0.0
2018-Apr-21 16:39N 36°57' W 025°09'0 0.0
2018-Apr-21 16:30N 36°57' W 025°09'0 0.0
2018-Apr-21 16:00N 36°57' W 025°09'0 0.0
2018-Apr-21 15:27N 36°57' W 025°09'0 0.0
2018-Apr-21 15:00N 36°57' W 025°09'0 0.0
2018-Apr-21 14:30N 36°57' W 025°09'0 0.0
2018-Apr-21 14:00N 36°57' W 025°09'0 0.0
2018-Apr-21 13:30N 36°57' W 025°09'0 0.0
2018-Apr-21 13:00N 36°57' W 025°09'0 0.0
2018-Apr-21 12:30N 36°57' W 025°09'0 0.0
2018-Apr-21 12:00N 36°57' W 025°09'0 0.0
2018-Apr-21 11:30N 36°57' W 025°09'0 0.0
2018-Apr-21 11:00N 36°57' W 025°09'1 2.4
2018-Apr-21 10:30N 36°56' W 025°08'2 4.5
2018-Apr-21 10:00N 36°55' W 025°05'2 4.4
2018-Apr-21 09:30N 36°55' W 025°02'2 4.1
2018-Apr-21 09:01N 36°54' W 024°60'2 4.7
2018-Apr-21 08:29N 36°53' W 024°57'2 4.4
2018-Apr-21 08:00N 36°52' W 024°55'2 4.4
2018-Apr-21 07:30N 36°51' W 024°52'2 4.5
2018-Apr-21 07:00N 36°51' W 024°50'2 4.9
2018-Apr-21 06:30N 36°50' W 024°47'2 4.2
2018-Apr-21 06:00N 36°49' W 024°44'2 4.3
2018-Apr-21 05:30N 36°48' W 024°42'2 4.2
2018-Apr-21 05:00N 36°46' W 024°40'2 4.3
2018-Apr-21 04:30N 36°46' W 024°37'2 4.2
2018-Apr-21 04:00N 36°45' W 024°35'2 4.2
2018-Apr-21 03:30N 36°44' W 024°33'2 4.2
2018-Apr-21 02:59N 36°43' W 024°30'2 4.2
2018-Apr-21 02:30N 36°42' W 024°28'2 4.6
2018-Apr-21 02:00N 36°41' W 024°25'2 4.4
2018-Apr-21 01:29N 36°40' W 024°23'2 4.4
2018-Apr-21 00:59N 36°39' W 024°20'2 4.3
2018-Apr-21 00:30N 36°38' W 024°18'2 4.3
2018-Apr-21 00:00N 36°38' W 024°15'2 4.5
2018-Apr-20 23:28N 36°37' W 024°13'  
Track history (hours):
 
Tides and Currents Weather Stations Pressure Air Temp Water Temp Dewpoint Dewpoint Depression Visibility Wind Speed Wind Dir Waves Ship Positions

Gipsy 3

Last reported at 2018-Apr-23 13:25 UTC. Time now 2018-Apr-23 13:51 UTC.
Position N 36°57' W 025°09'.

Length 9 m.

Type: Sailing vessel. MMSI: 227170890.

Date/timePositionNaut miles runAvg speedWind from/ knotsBaromVisibWave heightAir tempDewpointWater temp
2018-Apr-23 13:25N 36°57' W 025°09'0 0.0
2018-Apr-23 12:58N 36°57' W 025°09'0 0.0
2018-Apr-23 12:28N 36°57' W 025°09'0 0.0
2018-Apr-23 11:58N 36°57' W 025°09'0 0.0
2018-Apr-23 11:28N 36°57' W 025°09'0 0.0
2018-Apr-23 10:58N 36°57' W 025°09'0 0.0
2018-Apr-23 10:28N 36°57' W 025°09'0 0.0
2018-Apr-21 16:39N 36°57' W 025°09'0 0.0
2018-Apr-21 16:30N 36°57' W 025°09'0 0.0
2018-Apr-21 16:00N 36°57' W 025°09'0 0.0
2018-Apr-21 15:27N 36°57' W 025°09'0 0.0
2018-Apr-21 15:00N 36°57' W 025°09'0 0.0
2018-Apr-21 14:30N 36°57' W 025°09'0 0.0
2018-Apr-21 14:00N 36°57' W 025°09'0 0.0
2018-Apr-21 13:30N 36°57' W 025°09'0 0.0
2018-Apr-21 13:00N 36°57' W 025°09'0 0.0
2018-Apr-21 12:30N 36°57' W 025°09'0 0.0
2018-Apr-21 12:00N 36°57' W 025°09'0 0.0
2018-Apr-21 11:30N 36°57' W 025°09'0 0.0
2018-Apr-21 11:00N 36°57' W 025°09'1 2.4
2018-Apr-21 10:30N 36°56' W 025°08'2 4.5
2018-Apr-21 10:00N 36°55' W 025°05'2 4.4
2018-Apr-21 09:30N 36°55' W 025°02'2 4.1
2018-Apr-21 09:01N 36°54' W 024°60'2 4.7
2018-Apr-21 08:29N 36°53' W 024°57'2 4.4
2018-Apr-21 08:00N 36°52' W 024°55'2 4.4
2018-Apr-21 07:30N 36°51' W 024°52'2 4.5
2018-Apr-21 07:00N 36°51' W 024°50'2 4.9
2018-Apr-21 06:30N 36°50' W 024°47'2 4.2
2018-Apr-21 06:00N 36°49' W 024°44'2 4.3
2018-Apr-21 05:30N 36°48' W 024°42'2 4.2
2018-Apr-21 05:00N 36°46' W 024°40'2 4.3
2018-Apr-21 04:30N 36°46' W 024°37'2 4.2
2018-Apr-21 04:00N 36°45' W 024°35'2 4.2
2018-Apr-21 03:30N 36°44' W 024°33'2 4.2
2018-Apr-21 02:59N 36°43' W 024°30'2 4.2
2018-Apr-21 02:30N 36°42' W 024°28'2 4.6
2018-Apr-21 02:00N 36°41' W 024°25'2 4.4
2018-Apr-21 01:29N 36°40' W 024°23'2 4.4
2018-Apr-21 00:59N 36°39' W 024°20'2 4.3
2018-Apr-21 00:30N 36°38' W 024°18'2 4.3
2018-Apr-21 00:00N 36°38' W 024°15'2 4.5
2018-Apr-20 23:28N 36°37' W 024°13'  

Dump ship's entire track history